sensor_id;sensor_type;location;lat;lon;timestamp;P1;durP1;ratioP1;P2;durP2;ratioP2
60859;SDS011;46694;54.382;9.708;2023-12-29T00:00:01;8.38;;;2.15;;
60859;SDS011;46694;54.382;9.708;2023-12-29T00:02:32;12.10;;;2.30;;
60859;SDS011;46694;54.382;9.708;2023-12-29T00:04:58;9.43;;;2.50;;
60859;SDS011;46694;54.382;9.708;2023-12-29T00:07:24;6.45;;;1.73;;
60859;SDS011;46694;54.382;9.708;2023-12-29T00:09:50;6.97;;;1.63;;
60859;SDS011;46694;54.382;9.708;2023-12-29T00:12:16;9.13;;;2.15;;
60859;SDS011;46694;54.382;9.708;2023-12-29T00:14:41;6.28;;;1.58;;
60859;SDS011;46694;54.382;9.708;2023-12-29T00:17:08;7.68;;;1.80;;
60859;SDS011;46694;54.382;9.708;2023-12-29T00:19:34;8.93;;;1.42;;
60859;SDS011;46694;54.382;9.708;2023-12-29T00:22:00;10.10;;;1.67;;
60859;SDS011;46694;54.382;9.708;2023-12-29T00:24:28;6.10;;;1.48;;
60859;SDS011;46694;54.382;9.708;2023-12-29T00:26:56;8.05;;;1.70;;
60859;SDS011;46694;54.382;9.708;2023-12-29T00:29:23;7.93;;;1.50;;
60859;SDS011;46694;54.382;9.708;2023-12-29T00:31:57;5.32;;;1.20;;
60859;SDS011;46694;54.382;9.708;2023-12-29T00:34:23;7.28;;;1.33;;
60859;SDS011;46694;54.382;9.708;2023-12-29T00:36:48;6.18;;;1.20;;
60859;SDS011;46694;54.382;9.708;2023-12-29T00:39:14;6.43;;;1.30;;
60859;SDS011;46694;54.382;9.708;2023-12-29T00:41:40;4.55;;;1.13;;
60859;SDS011;46694;54.382;9.708;2023-12-29T00:44:06;5.38;;;1.35;;
60859;SDS011;46694;54.382;9.708;2023-12-29T00:46:33;8.63;;;1.33;;
60859;SDS011;46694;54.382;9.708;2023-12-29T00:48:59;5.75;;;1.30;;
60859;SDS011;46694;54.382;9.708;2023-12-29T00:51:25;7.30;;;1.48;;
60859;SDS011;46694;54.382;9.708;2023-12-29T00:53:50;5.70;;;1.45;;
60859;SDS011;46694;54.382;9.708;2023-12-29T00:56:16;5.72;;;1.20;;
60859;SDS011;46694;54.382;9.708;2023-12-29T00:58:42;5.38;;;1.30;;
60859;SDS011;46694;54.382;9.708;2023-12-29T01:01:08;6.38;;;1.42;;
60859;SDS011;46694;54.382;9.708;2023-12-29T01:03:36;5.18;;;1.20;;
60859;SDS011;46694;54.382;9.708;2023-12-29T01:06:02;6.13;;;1.20;;
60859;SDS011;46694;54.382;9.708;2023-12-29T01:08:28;5.60;;;1.48;;
60859;SDS011;46694;54.382;9.708;2023-12-29T01:10:54;6.32;;;1.38;;
60859;SDS011;46694;54.382;9.708;2023-12-29T01:13:20;8.57;;;1.45;;
60859;SDS011;46694;54.382;9.708;2023-12-29T01:15:46;6.38;;;1.80;;
60859;SDS011;46694;54.382;9.708;2023-12-29T01:18:12;8.52;;;1.58;;
60859;SDS011;46694;54.382;9.708;2023-12-29T01:20:37;6.05;;;1.48;;
60859;SDS011;46694;54.382;9.708;2023-12-29T01:23:07;7.35;;;1.70;;
60859;SDS011;46694;54.382;9.708;2023-12-29T01:25:32;8.77;;;1.92;;
60859;SDS011;46694;54.382;9.708;2023-12-29T01:27:58;9.50;;;2.15;;
60859;SDS011;46694;54.382;9.708;2023-12-29T01:30:24;4.65;;;1.85;;
60859;SDS011;46694;54.382;9.708;2023-12-29T01:32:50;8.70;;;2.05;;
60859;SDS011;46694;54.382;9.708;2023-12-29T01:35:16;6.07;;;1.92;;
60859;SDS011;46694;54.382;9.708;2023-12-29T01:37:42;8.60;;;1.85;;
60859;SDS011;46694;54.382;9.708;2023-12-29T01:40:08;6.43;;;1.98;;
60859;SDS011;46694;54.382;9.708;2023-12-29T01:42:34;12.70;;;2.60;;
60859;SDS011;46694;54.382;9.708;2023-12-29T01:45:00;10.75;;;1.95;;
60859;SDS011;46694;54.382;9.708;2023-12-29T01:47:26;9.27;;;2.10;;
60859;SDS011;46694;54.382;9.708;2023-12-29T01:49:52;10.20;;;2.28;;
60859;SDS011;46694;54.382;9.708;2023-12-29T01:52:18;7.15;;;1.90;;
60859;SDS011;46694;54.382;9.708;2023-12-29T01:54:46;8.07;;;1.90;;
60859;SDS011;46694;54.382;9.708;2023-12-29T01:57:14;10.70;;;2.10;;
60859;SDS011;46694;54.382;9.708;2023-12-29T01:59:40;6.93;;;2.20;;
60859;SDS011;46694;54.382;9.708;2023-12-29T02:02:07;6.85;;;1.80;;
60859;SDS011;46694;54.382;9.708;2023-12-29T02:04:33;8.35;;;2.20;;
60859;SDS011;46694;54.382;9.708;2023-12-29T02:06:59;10.80;;;2.60;;
60859;SDS011;46694;54.382;9.708;2023-12-29T02:09:25;13.70;;;2.60;;
60859;SDS011;46694;54.382;9.708;2023-12-29T02:11:51;10.77;;;2.47;;
60859;SDS011;46694;54.382;9.708;2023-12-29T02:14:17;10.38;;;2.25;;
60859;SDS011;46694;54.382;9.708;2023-12-29T02:19:49;11.45;;;2.22;;
60859;SDS011;46694;54.382;9.708;2023-12-29T02:22:15;7.25;;;2.15;;
60859;SDS011;46694;54.382;9.708;2023-12-29T02:24:45;9.75;;;2.30;;
60859;SDS011;46694;54.382;9.708;2023-12-29T02:29:48;12.35;;;2.38;;
60859;SDS011;46694;54.382;9.708;2023-12-29T02:32:28;9.85;;;2.08;;
60859;SDS011;46694;54.382;9.708;2023-12-29T02:34:55;10.00;;;2.03;;
60859;SDS011;46694;54.382;9.708;2023-12-29T02:37:22;16.55;;;2.75;;
60859;SDS011;46694;54.382;9.708;2023-12-29T02:39:49;7.85;;;2.05;;
60859;SDS011;46694;54.382;9.708;2023-12-29T02:42:15;11.60;;;2.47;;
60859;SDS011;46694;54.382;9.708;2023-12-29T02:44:41;9.50;;;1.90;;
60859;SDS011;46694;54.382;9.708;2023-12-29T02:47:07;13.63;;;2.50;;
60859;SDS011;46694;54.382;9.708;2023-12-29T02:49:33;7.97;;;2.25;;
60859;SDS011;46694;54.382;9.708;2023-12-29T02:51:58;10.63;;;2.15;;
60859;SDS011;46694;54.382;9.708;2023-12-29T02:54:24;8.85;;;1.90;;
60859;SDS011;46694;54.382;9.708;2023-12-29T02:56:50;13.65;;;3.63;;
60859;SDS011;46694;54.382;9.708;2023-12-29T02:59:16;9.93;;;2.17;;
60859;SDS011;46694;54.382;9.708;2023-12-29T03:01:42;10.65;;;2.38;;
60859;SDS011;46694;54.382;9.708;2023-12-29T03:04:07;9.68;;;2.10;;
60859;SDS011;46694;54.382;9.708;2023-12-29T03:06:33;11.60;;;2.38;;
60859;SDS011;46694;54.382;9.708;2023-12-29T03:08:59;9.27;;;2.15;;
60859;SDS011;46694;54.382;9.708;2023-12-29T03:11:25;12.27;;;1.90;;
60859;SDS011;46694;54.382;9.708;2023-12-29T03:13:51;13.18;;;2.00;;
60859;SDS011;46694;54.382;9.708;2023-12-29T03:16:16;10.65;;;1.88;;
60859;SDS011;46694;54.382;9.708;2023-12-29T03:18:42;10.63;;;2.13;;
60859;SDS011;46694;54.382;9.708;2023-12-29T03:21:08;11.10;;;2.20;;
60859;SDS011;46694;54.382;9.708;2023-12-29T03:23:34;13.82;;;2.17;;
60859;SDS011;46694;54.382;9.708;2023-12-29T03:26:00;12.18;;;2.13;;
60859;SDS011;46694;54.382;9.708;2023-12-29T03:28:26;8.85;;;2.00;;
60859;SDS011;46694;54.382;9.708;2023-12-29T03:30:51;9.10;;;2.08;;
60859;SDS011;46694;54.382;9.708;2023-12-29T03:33:17;11.80;;;2.88;;
60859;SDS011;46694;54.382;9.708;2023-12-29T03:35:43;9.82;;;2.60;;
60859;SDS011;46694;54.382;9.708;2023-12-29T03:38:09;12.35;;;2.58;;
60859;SDS011;46694;54.382;9.708;2023-12-29T03:43:25;10.43;;;2.13;;
60859;SDS011;46694;54.382;9.708;2023-12-29T03:45:51;7.15;;;1.50;;
60859;SDS011;46694;54.382;9.708;2023-12-29T03:48:17;12.90;;;2.38;;
60859;SDS011;46694;54.382;9.708;2023-12-29T03:50:43;10.20;;;1.88;;
60859;SDS011;46694;54.382;9.708;2023-12-29T03:53:08;10.30;;;1.80;;
60859;SDS011;46694;54.382;9.708;2023-12-29T03:55:34;11.77;;;2.15;;
60859;SDS011;46694;54.382;9.708;2023-12-29T03:58:01;9.13;;;2.42;;
60859;SDS011;46694;54.382;9.708;2023-12-29T04:00:27;7.30;;;1.45;;
60859;SDS011;46694;54.382;9.708;2023-12-29T04:02:53;9.38;;;1.52;;
60859;SDS011;46694;54.382;9.708;2023-12-29T04:05:31;7.28;;;1.42;;
60859;SDS011;46694;54.382;9.708;2023-12-29T04:07:57;11.73;;;2.10;;
60859;SDS011;46694;54.382;9.708;2023-12-29T04:10:23;6.65;;;1.58;;
60859;SDS011;46694;54.382;9.708;2023-12-29T04:12:49;9.52;;;1.67;;
60859;SDS011;46694;54.382;9.708;2023-12-29T04:15:14;11.10;;;1.80;;
60859;SDS011;46694;54.382;9.708;2023-12-29T04:17:40;8.20;;;1.65;;
60859;SDS011;46694;54.382;9.708;2023-12-29T04:20:06;6.70;;;1.52;;
60859;SDS011;46694;54.382;9.708;2023-12-29T04:22:32;8.20;;;1.73;;
60859;SDS011;46694;54.382;9.708;2023-12-29T04:24:59;10.80;;;1.95;;
60859;SDS011;46694;54.382;9.708;2023-12-29T04:27:25;11.30;;;2.00;;
60859;SDS011;46694;54.382;9.708;2023-12-29T04:29:50;7.03;;;2.10;;
60859;SDS011;46694;54.382;9.708;2023-12-29T04:32:16;8.15;;;1.60;;
60859;SDS011;46694;54.382;9.708;2023-12-29T04:34:42;11.10;;;1.98;;
60859;SDS011;46694;54.382;9.708;2023-12-29T04:37:08;9.77;;;1.70;;
60859;SDS011;46694;54.382;9.708;2023-12-29T04:39:34;11.85;;;2.22;;
60859;SDS011;46694;54.382;9.708;2023-12-29T04:41:59;10.25;;;1.65;;
60859;SDS011;46694;54.382;9.708;2023-12-29T04:44:25;9.20;;;2.15;;
60859;SDS011;46694;54.382;9.708;2023-12-29T04:46:51;7.40;;;1.40;;
60859;SDS011;46694;54.382;9.708;2023-12-29T04:49:17;9.98;;;2.33;;
60859;SDS011;46694;54.382;9.708;2023-12-29T04:51:42;10.50;;;1.88;;
60859;SDS011;46694;54.382;9.708;2023-12-29T04:57:24;13.82;;;2.67;;
60859;SDS011;46694;54.382;9.708;2023-12-29T04:59:50;8.43;;;1.65;;
60859;SDS011;46694;54.382;9.708;2023-12-29T05:02:16;13.50;;;2.25;;
60859;SDS011;46694;54.382;9.708;2023-12-29T05:04:43;9.73;;;1.90;;
60859;SDS011;46694;54.382;9.708;2023-12-29T05:07:09;13.18;;;2.10;;
60859;SDS011;46694;54.382;9.708;2023-12-29T05:09:35;7.00;;;1.73;;
60859;SDS011;46694;54.382;9.708;2023-12-29T05:12:01;11.30;;;1.60;;
60859;SDS011;46694;54.382;9.708;2023-12-29T05:14:26;14.70;;;1.98;;
60859;SDS011;46694;54.382;9.708;2023-12-29T05:16:52;13.52;;;2.20;;
60859;SDS011;46694;54.382;9.708;2023-12-29T05:19:19;16.48;;;2.33;;
60859;SDS011;46694;54.382;9.708;2023-12-29T05:21:44;6.95;;;1.85;;
60859;SDS011;46694;54.382;9.708;2023-12-29T05:24:11;13.73;;;2.25;;
60859;SDS011;46694;54.382;9.708;2023-12-29T05:26:37;14.55;;;2.22;;
60859;SDS011;46694;54.382;9.708;2023-12-29T05:29:02;17.38;;;2.28;;
60859;SDS011;46694;54.382;9.708;2023-12-29T05:31:28;12.00;;;2.03;;
60859;SDS011;46694;54.382;9.708;2023-12-29T05:33:55;11.93;;;2.53;;
60859;SDS011;46694;54.382;9.708;2023-12-29T05:36:21;11.80;;;2.20;;
60859;SDS011;46694;54.382;9.708;2023-12-29T05:38:47;18.38;;;3.13;;
60859;SDS011;46694;54.382;9.708;2023-12-29T05:41:13;11.80;;;2.13;;
60859;SDS011;46694;54.382;9.708;2023-12-29T05:43:39;11.32;;;2.20;;
60859;SDS011;46694;54.382;9.708;2023-12-29T05:46:14;12.25;;;1.83;;
60859;SDS011;46694;54.382;9.708;2023-12-29T05:48:40;8.48;;;1.88;;
60859;SDS011;46694;54.382;9.708;2023-12-29T05:51:09;19.08;;;2.47;;
60859;SDS011;46694;54.382;9.708;2023-12-29T05:53:36;16.50;;;2.70;;
60859;SDS011;46694;54.382;9.708;2023-12-29T05:56:02;10.43;;;2.10;;
60859;SDS011;46694;54.382;9.708;2023-12-29T05:58:28;14.52;;;2.35;;
60859;SDS011;46694;54.382;9.708;2023-12-29T06:00:54;13.57;;;2.67;;
60859;SDS011;46694;54.382;9.708;2023-12-29T06:03:21;16.55;;;2.70;;
60859;SDS011;46694;54.382;9.708;2023-12-29T06:05:47;13.20;;;2.40;;
60859;SDS011;46694;54.382;9.708;2023-12-29T06:08:13;14.45;;;2.65;;
60859;SDS011;46694;54.382;9.708;2023-12-29T06:10:40;9.98;;;2.28;;
60859;SDS011;46694;54.382;9.708;2023-12-29T06:13:05;11.88;;;1.80;;
60859;SDS011;46694;54.382;9.708;2023-12-29T06:15:31;13.60;;;2.22;;
60859;SDS011;46694;54.382;9.708;2023-12-29T06:17:57;12.55;;;2.08;;
60859;SDS011;46694;54.382;9.708;2023-12-29T06:20:23;9.68;;;1.67;;
60859;SDS011;46694;54.382;9.708;2023-12-29T06:22:49;12.05;;;2.05;;
60859;SDS011;46694;54.382;9.708;2023-12-29T06:25:18;13.55;;;2.08;;
60859;SDS011;46694;54.382;9.708;2023-12-29T06:27:44;10.02;;;2.15;;
60859;SDS011;46694;54.382;9.708;2023-12-29T06:30:10;17.98;;;2.45;;
60859;SDS011;46694;54.382;9.708;2023-12-29T06:32:36;16.27;;;2.30;;
60859;SDS011;46694;54.382;9.708;2023-12-29T06:35:03;10.90;;;1.88;;
60859;SDS011;46694;54.382;9.708;2023-12-29T06:37:30;13.23;;;2.20;;
60859;SDS011;46694;54.382;9.708;2023-12-29T06:39:56;16.23;;;2.30;;
60859;SDS011;46694;54.382;9.708;2023-12-29T06:42:22;10.88;;;1.80;;
60859;SDS011;46694;54.382;9.708;2023-12-29T06:44:48;18.15;;;2.63;;
60859;SDS011;46694;54.382;9.708;2023-12-29T06:50:17;18.15;;;3.65;;
60859;SDS011;46694;54.382;9.708;2023-12-29T06:52:42;18.63;;;2.95;;
60859;SDS011;46694;54.382;9.708;2023-12-29T06:55:08;15.88;;;2.67;;
60859;SDS011;46694;54.382;9.708;2023-12-29T06:57:34;15.48;;;2.28;;
60859;SDS011;46694;54.382;9.708;2023-12-29T07:00:00;16.75;;;3.00;;
60859;SDS011;46694;54.382;9.708;2023-12-29T07:02:26;19.52;;;3.50;;
60859;SDS011;46694;54.382;9.708;2023-12-29T07:04:52;20.25;;;2.58;;
60859;SDS011;46694;54.382;9.708;2023-12-29T07:07:18;22.73;;;3.45;;
60859;SDS011;46694;54.382;9.708;2023-12-29T07:09:44;20.58;;;3.35;;
60859;SDS011;46694;54.382;9.708;2023-12-29T07:12:10;12.63;;;2.65;;
60859;SDS011;46694;54.382;9.708;2023-12-29T07:14:36;17.13;;;3.65;;
60859;SDS011;46694;54.382;9.708;2023-12-29T07:17:02;20.65;;;3.22;;
60859;SDS011;46694;54.382;9.708;2023-12-29T07:19:28;21.35;;;5.38;;
60859;SDS011;46694;54.382;9.708;2023-12-29T07:22:01;17.83;;;2.60;;
60859;SDS011;46694;54.382;9.708;2023-12-29T07:24:30;25.13;;;6.60;;
60859;SDS011;46694;54.382;9.708;2023-12-29T07:26:57;19.33;;;3.55;;
60859;SDS011;46694;54.382;9.708;2023-12-29T07:29:23;16.70;;;3.55;;
60859;SDS011;46694;54.382;9.708;2023-12-29T07:31:49;18.55;;;3.42;;
60859;SDS011;46694;54.382;9.708;2023-12-29T07:34:14;17.05;;;3.42;;
60859;SDS011;46694;54.382;9.708;2023-12-29T07:36:40;18.98;;;3.92;;
60859;SDS011;46694;54.382;9.708;2023-12-29T07:39:06;23.88;;;5.47;;
60859;SDS011;46694;54.382;9.708;2023-12-29T07:41:33;16.15;;;3.05;;
60859;SDS011;46694;54.382;9.708;2023-12-29T07:44:00;18.45;;;3.10;;
60859;SDS011;46694;54.382;9.708;2023-12-29T07:46:26;17.77;;;2.67;;
60859;SDS011;46694;54.382;9.708;2023-12-29T07:48:52;16.10;;;2.90;;
60859;SDS011;46694;54.382;9.708;2023-12-29T07:51:18;15.38;;;2.30;;
60859;SDS011;46694;54.382;9.708;2023-12-29T07:53:44;11.93;;;2.55;;
60859;SDS011;46694;54.382;9.708;2023-12-29T07:56:13;24.20;;;3.65;;
60859;SDS011;46694;54.382;9.708;2023-12-29T07:58:39;18.20;;;2.78;;
60859;SDS011;46694;54.382;9.708;2023-12-29T08:01:05;14.43;;;3.00;;
60859;SDS011;46694;54.382;9.708;2023-12-29T08:03:31;16.50;;;3.30;;
60859;SDS011;46694;54.382;9.708;2023-12-29T08:05:56;19.88;;;2.90;;
60859;SDS011;46694;54.382;9.708;2023-12-29T08:08:22;15.07;;;2.88;;
60859;SDS011;46694;54.382;9.708;2023-12-29T08:10:48;18.65;;;2.95;;
60859;SDS011;46694;54.382;9.708;2023-12-29T08:13:14;18.35;;;3.28;;
60859;SDS011;46694;54.382;9.708;2023-12-29T08:15:40;13.23;;;3.08;;
60859;SDS011;46694;54.382;9.708;2023-12-29T08:18:06;18.95;;;2.80;;
60859;SDS011;46694;54.382;9.708;2023-12-29T08:20:31;16.63;;;3.00;;
60859;SDS011;46694;54.382;9.708;2023-12-29T08:22:57;13.50;;;2.25;;
60859;SDS011;46694;54.382;9.708;2023-12-29T08:25:35;13.95;;;2.65;;
60859;SDS011;46694;54.382;9.708;2023-12-29T08:28:02;16.88;;;2.75;;
60859;SDS011;46694;54.382;9.708;2023-12-29T08:30:28;14.45;;;2.25;;
60859;SDS011;46694;54.382;9.708;2023-12-29T08:32:54;14.98;;;2.78;;
60859;SDS011;46694;54.382;9.708;2023-12-29T08:35:19;15.20;;;2.50;;
60859;SDS011;46694;54.382;9.708;2023-12-29T08:37:45;14.68;;;3.22;;
60859;SDS011;46694;54.382;9.708;2023-12-29T08:40:11;15.27;;;2.90;;
60859;SDS011;46694;54.382;9.708;2023-12-29T08:42:37;17.10;;;3.05;;
60859;SDS011;46694;54.382;9.708;2023-12-29T08:45:03;15.35;;;2.53;;
60859;SDS011;46694;54.382;9.708;2023-12-29T08:47:29;14.95;;;2.55;;
60859;SDS011;46694;54.382;9.708;2023-12-29T08:49:55;14.90;;;2.30;;
60859;SDS011;46694;54.382;9.708;2023-12-29T08:52:21;15.48;;;2.47;;
60859;SDS011;46694;54.382;9.708;2023-12-29T08:54:47;15.48;;;2.40;;
60859;SDS011;46694;54.382;9.708;2023-12-29T08:57:13;17.95;;;2.95;;
60859;SDS011;46694;54.382;9.708;2023-12-29T08:59:38;14.82;;;2.63;;
60859;SDS011;46694;54.382;9.708;2023-12-29T09:02:05;18.15;;;2.88;;
60859;SDS011;46694;54.382;9.708;2023-12-29T09:04:31;16.10;;;2.80;;
60859;SDS011;46694;54.382;9.708;2023-12-29T09:06:57;15.82;;;3.42;;
60859;SDS011;46694;54.382;9.708;2023-12-29T09:09:22;19.13;;;2.80;;
60859;SDS011;46694;54.382;9.708;2023-12-29T09:11:48;17.75;;;2.83;;
60859;SDS011;46694;54.382;9.708;2023-12-29T09:14:14;14.68;;;2.42;;
60859;SDS011;46694;54.382;9.708;2023-12-29T09:16:40;12.15;;;3.10;;
60859;SDS011;46694;54.382;9.708;2023-12-29T09:19:07;15.93;;;2.47;;
60859;SDS011;46694;54.382;9.708;2023-12-29T09:21:33;15.73;;;2.95;;
60859;SDS011;46694;54.382;9.708;2023-12-29T09:23:59;16.55;;;2.45;;
60859;SDS011;46694;54.382;9.708;2023-12-29T09:26:24;11.10;;;1.95;;
60859;SDS011;46694;54.382;9.708;2023-12-29T09:28:50;12.02;;;2.28;;
60859;SDS011;46694;54.382;9.708;2023-12-29T09:31:16;12.60;;;2.45;;
60859;SDS011;46694;54.382;9.708;2023-12-29T09:33:42;13.02;;;2.70;;
60859;SDS011;46694;54.382;9.708;2023-12-29T09:36:08;17.13;;;2.42;;
60859;SDS011;46694;54.382;9.708;2023-12-29T09:38:34;13.85;;;2.40;;
60859;SDS011;46694;54.382;9.708;2023-12-29T09:41:04;15.40;;;2.65;;
60859;SDS011;46694;54.382;9.708;2023-12-29T09:43:34;17.45;;;2.67;;
60859;SDS011;46694;54.382;9.708;2023-12-29T09:46:01;16.00;;;3.00;;
60859;SDS011;46694;54.382;9.708;2023-12-29T09:48:29;15.57;;;4.13;;
60859;SDS011;46694;54.382;9.708;2023-12-29T09:50:59;15.70;;;3.50;;
60859;SDS011;46694;54.382;9.708;2023-12-29T09:53:25;19.20;;;3.33;;
60859;SDS011;46694;54.382;9.708;2023-12-29T09:55:53;16.55;;;4.35;;
60859;SDS011;46694;54.382;9.708;2023-12-29T09:58:21;19.30;;;3.30;;
60859;SDS011;46694;54.382;9.708;2023-12-29T10:00:48;13.43;;;2.92;;
60859;SDS011;46694;54.382;9.708;2023-12-29T10:03:15;12.98;;;2.40;;
60859;SDS011;46694;54.382;9.708;2023-12-29T10:05:41;17.30;;;2.85;;
60859;SDS011;46694;54.382;9.708;2023-12-29T10:08:08;15.13;;;2.28;;
60859;SDS011;46694;54.382;9.708;2023-12-29T10:10:35;14.45;;;2.33;;
60859;SDS011;46694;54.382;9.708;2023-12-29T10:13:04;15.18;;;2.35;;
60859;SDS011;46694;54.382;9.708;2023-12-29T10:18:32;12.35;;;2.10;;
60859;SDS011;46694;54.382;9.708;2023-12-29T10:23:56;13.55;;;2.40;;
60859;SDS011;46694;54.382;9.708;2023-12-29T10:26:32;13.50;;;2.05;;
60859;SDS011;46694;54.382;9.708;2023-12-29T10:28:59;13.63;;;2.25;;
60859;SDS011;46694;54.382;9.708;2023-12-29T10:31:25;13.95;;;2.10;;
60859;SDS011;46694;54.382;9.708;2023-12-29T10:33:51;15.02;;;2.45;;
60859;SDS011;46694;54.382;9.708;2023-12-29T10:36:17;14.55;;;2.55;;
60859;SDS011;46694;54.382;9.708;2023-12-29T10:38:43;13.82;;;2.50;;
60859;SDS011;46694;54.382;9.708;2023-12-29T10:41:16;11.10;;;2.38;;
60859;SDS011;46694;54.382;9.708;2023-12-29T10:43:44;12.82;;;2.72;;
60859;SDS011;46694;54.382;9.708;2023-12-29T10:46:19;16.20;;;2.90;;
60859;SDS011;46694;54.382;9.708;2023-12-29T10:48:45;12.90;;;2.95;;
60859;SDS011;46694;54.382;9.708;2023-12-29T10:51:11;14.55;;;2.40;;
60859;SDS011;46694;54.382;9.708;2023-12-29T10:53:37;18.35;;;2.70;;
60859;SDS011;46694;54.382;9.708;2023-12-29T10:56:03;15.10;;;2.65;;
60859;SDS011;46694;54.382;9.708;2023-12-29T10:58:29;16.13;;;2.25;;
60859;SDS011;46694;54.382;9.708;2023-12-29T11:00:57;12.85;;;3.22;;
60859;SDS011;46694;54.382;9.708;2023-12-29T11:03:25;14.25;;;2.60;;
60859;SDS011;46694;54.382;9.708;2023-12-29T11:05:51;15.80;;;2.80;;
60859;SDS011;46694;54.382;9.708;2023-12-29T11:08:27;18.27;;;4.18;;
60859;SDS011;46694;54.382;9.708;2023-12-29T11:10:53;16.48;;;2.33;;
60859;SDS011;46694;54.382;9.708;2023-12-29T11:13:20;12.88;;;2.28;;
60859;SDS011;46694;54.382;9.708;2023-12-29T11:15:46;12.65;;;3.20;;
60859;SDS011;46694;54.382;9.708;2023-12-29T11:18:13;12.30;;;2.50;;
60859;SDS011;46694;54.382;9.708;2023-12-29T11:20:44;15.55;;;2.60;;
60859;SDS011;46694;54.382;9.708;2023-12-29T11:23:12;15.32;;;2.30;;
60859;SDS011;46694;54.382;9.708;2023-12-29T11:25:43;13.50;;;2.67;;
60859;SDS011;46694;54.382;9.708;2023-12-29T11:28:11;17.17;;;3.00;;
60859;SDS011;46694;54.382;9.708;2023-12-29T11:30:37;18.85;;;3.17;;
60859;SDS011;46694;54.382;9.708;2023-12-29T11:41:28;12.45;;;2.75;;
60859;SDS011;46694;54.382;9.708;2023-12-29T11:44:29;19.20;;;2.78;;
60859;SDS011;46694;54.382;9.708;2023-12-29T11:46:56;18.35;;;3.45;;
60859;SDS011;46694;54.382;9.708;2023-12-29T11:49:22;16.17;;;3.50;;
60859;SDS011;46694;54.382;9.708;2023-12-29T11:51:49;19.83;;;4.90;;
60859;SDS011;46694;54.382;9.708;2023-12-29T11:54:25;17.50;;;4.13;;
60859;SDS011;46694;54.382;9.708;2023-12-29T11:56:54;17.23;;;2.80;;
60859;SDS011;46694;54.382;9.708;2023-12-29T11:59:24;12.65;;;2.45;;
60859;SDS011;46694;54.382;9.708;2023-12-29T12:04:35;17.80;;;3.10;;
60859;SDS011;46694;54.382;9.708;2023-12-29T12:12:48;19.67;;;2.95;;
60859;SDS011;46694;54.382;9.708;2023-12-29T12:18:00;15.07;;;3.30;;
60859;SDS011;46694;54.382;9.708;2023-12-29T12:20:34;14.57;;;2.30;;
60859;SDS011;46694;54.382;9.708;2023-12-29T12:23:01;15.20;;;2.83;;
60859;SDS011;46694;54.382;9.708;2023-12-29T12:25:35;20.95;;;3.30;;
60859;SDS011;46694;54.382;9.708;2023-12-29T12:28:08;16.88;;;2.58;;
60859;SDS011;46694;54.382;9.708;2023-12-29T12:30:35;20.75;;;2.97;;
60859;SDS011;46694;54.382;9.708;2023-12-29T12:33:02;15.20;;;3.00;;
60859;SDS011;46694;54.382;9.708;2023-12-29T12:35:29;15.10;;;3.13;;
60859;SDS011;46694;54.382;9.708;2023-12-29T12:38:12;15.98;;;3.20;;
60859;SDS011;46694;54.382;9.708;2023-12-29T12:40:40;15.27;;;2.40;;
60859;SDS011;46694;54.382;9.708;2023-12-29T12:43:06;16.88;;;2.20;;
60859;SDS011;46694;54.382;9.708;2023-12-29T12:45:40;18.58;;;3.15;;
60859;SDS011;46694;54.382;9.708;2023-12-29T12:48:13;18.25;;;2.67;;
60859;SDS011;46694;54.382;9.708;2023-12-29T12:50:47;17.85;;;2.67;;
60859;SDS011;46694;54.382;9.708;2023-12-29T12:53:14;19.95;;;2.50;;
60859;SDS011;46694;54.382;9.708;2023-12-29T12:55:47;13.43;;;2.08;;
60859;SDS011;46694;54.382;9.708;2023-12-29T12:58:19;14.52;;;2.53;;
60859;SDS011;46694;54.382;9.708;2023-12-29T13:00:46;11.50;;;2.30;;
60859;SDS011;46694;54.382;9.708;2023-12-29T13:03:13;15.25;;;2.42;;
60859;SDS011;46694;54.382;9.708;2023-12-29T13:05:40;14.15;;;2.55;;
60859;SDS011;46694;54.382;9.708;2023-12-29T13:08:06;13.90;;;2.50;;
60859;SDS011;46694;54.382;9.708;2023-12-29T13:10:33;16.40;;;2.10;;
60859;SDS011;46694;54.382;9.708;2023-12-29T13:12:59;14.85;;;2.08;;
60859;SDS011;46694;54.382;9.708;2023-12-29T13:15:25;12.82;;;2.15;;
60859;SDS011;46694;54.382;9.708;2023-12-29T13:17:54;13.05;;;2.42;;
60859;SDS011;46694;54.382;9.708;2023-12-29T13:20:20;12.75;;;2.65;;
60859;SDS011;46694;54.382;9.708;2023-12-29T13:22:50;13.60;;;2.50;;
60859;SDS011;46694;54.382;9.708;2023-12-29T13:25:34;14.43;;;2.90;;
60859;SDS011;46694;54.382;9.708;2023-12-29T13:28:02;20.15;;;4.22;;
60859;SDS011;46694;54.382;9.708;2023-12-29T13:30:29;12.85;;;3.15;;
60859;SDS011;46694;54.382;9.708;2023-12-29T13:32:55;16.52;;;4.10;;
60859;SDS011;46694;54.382;9.708;2023-12-29T13:41:09;20.27;;;4.07;;
60859;SDS011;46694;54.382;9.708;2023-12-29T13:43:37;20.23;;;3.50;;
60859;SDS011;46694;54.382;9.708;2023-12-29T13:46:07;18.58;;;3.72;;
60859;SDS011;46694;54.382;9.708;2023-12-29T13:48:36;16.73;;;3.13;;
60859;SDS011;46694;54.382;9.708;2023-12-29T13:51:03;18.83;;;3.17;;
60859;SDS011;46694;54.382;9.708;2023-12-29T13:53:29;19.88;;;3.70;;
60859;SDS011;46694;54.382;9.708;2023-12-29T13:56:08;28.08;;;5.75;;
60859;SDS011;46694;54.382;9.708;2023-12-29T13:58:35;20.67;;;3.78;;
60859;SDS011;46694;54.382;9.708;2023-12-29T14:01:03;11.32;;;2.35;;
60859;SDS011;46694;54.382;9.708;2023-12-29T14:03:47;13.85;;;2.60;;
60859;SDS011;46694;54.382;9.708;2023-12-29T14:06:21;14.75;;;3.97;;
60859;SDS011;46694;54.382;9.708;2023-12-29T14:08:53;18.38;;;3.45;;
60859;SDS011;46694;54.382;9.708;2023-12-29T14:11:20;17.23;;;2.75;;
60859;SDS011;46694;54.382;9.708;2023-12-29T14:13:46;13.48;;;3.00;;
60859;SDS011;46694;54.382;9.708;2023-12-29T14:16:15;13.75;;;2.63;;
60859;SDS011;46694;54.382;9.708;2023-12-29T14:21:32;17.33;;;2.97;;
60859;SDS011;46694;54.382;9.708;2023-12-29T14:24:20;22.13;;;3.38;;
60859;SDS011;46694;54.382;9.708;2023-12-29T14:29:18;25.52;;;3.83;;
60859;SDS011;46694;54.382;9.708;2023-12-29T14:31:45;17.60;;;3.58;;
60859;SDS011;46694;54.382;9.708;2023-12-29T14:34:12;18.30;;;3.47;;
60859;SDS011;46694;54.382;9.708;2023-12-29T14:36:39;15.52;;;3.25;;
60859;SDS011;46694;54.382;9.708;2023-12-29T14:39:06;15.23;;;2.67;;
60859;SDS011;46694;54.382;9.708;2023-12-29T14:41:35;23.45;;;3.40;;
60859;SDS011;46694;54.382;9.708;2023-12-29T14:44:01;16.50;;;2.75;;
60859;SDS011;46694;54.382;9.708;2023-12-29T14:46:27;20.23;;;3.08;;
60859;SDS011;46694;54.382;9.708;2023-12-29T14:48:56;14.98;;;2.38;;
60859;SDS011;46694;54.382;9.708;2023-12-29T14:51:25;21.65;;;3.83;;
60859;SDS011;46694;54.382;9.708;2023-12-29T14:53:51;17.75;;;2.83;;
60859;SDS011;46694;54.382;9.708;2023-12-29T14:56:17;17.70;;;3.05;;
60859;SDS011;46694;54.382;9.708;2023-12-29T14:58:43;13.70;;;2.63;;
60859;SDS011;46694;54.382;9.708;2023-12-29T15:01:10;23.23;;;4.28;;
60859;SDS011;46694;54.382;9.708;2023-12-29T15:03:36;22.42;;;4.20;;
60859;SDS011;46694;54.382;9.708;2023-12-29T15:06:02;20.98;;;4.50;;
60859;SDS011;46694;54.382;9.708;2023-12-29T15:08:29;21.27;;;4.47;;
60859;SDS011;46694;54.382;9.708;2023-12-29T15:11:05;19.85;;;3.33;;
60859;SDS011;46694;54.382;9.708;2023-12-29T15:13:32;18.20;;;4.10;;
60859;SDS011;46694;54.382;9.708;2023-12-29T15:15:58;16.67;;;3.58;;
60859;SDS011;46694;54.382;9.708;2023-12-29T15:18:25;18.90;;;3.30;;
60859;SDS011;46694;54.382;9.708;2023-12-29T15:20:53;18.13;;;2.90;;
60859;SDS011;46694;54.382;9.708;2023-12-29T15:23:19;16.25;;;2.75;;
60859;SDS011;46694;54.382;9.708;2023-12-29T15:25:45;17.15;;;2.58;;
60859;SDS011;46694;54.382;9.708;2023-12-29T15:28:10;17.50;;;3.15;;